• Join FlightAware (Why Join?)
  • Login
  • US Flag 
02:02PM EDT


 

Airport Tracker/Info


-or-


 

Live Flight TrackerFlight Track Log ✈ DAL268 ✈ 17-Apr-2013 ✈ KATL - KJFK

Flight Track Log - Related Links

Times and Time Zones

All times are in EDT time to prevent confusion due to time zone crossing. See the DAL268 flight status page for this flight to view local times or setup timezone preferences in your user account.

Time Position Orientation Groundspeed Altitude Reporting Facility
EDT Latitude Longitude Course Direction KTS MPH feet Rate Location/Type
06:30PM 33.6353 -84.3133 86° East 443 510 3,600  Level Atlanta Center
06:31PM 33.6375 -84.2233 88° East 334 384 7,000 3,000 Climbing Atlanta Center
06:32PM 33.8632 -84.1313 101° East  Level Estimated
06:32PM 33.6378 -84.1286 90° East 291 335 9,700  Level Atlanta Center
06:33PM 33.8063 -84.0157 121° Southeast  Level FlightAware Approximate
06:33PM 33.6378 -84.0339 90° East 301 346 12,200  Level Atlanta Center
06:34PM 33.7493 -83.9002 121° Southeast  Level FlightAware Approximate
06:34PM 33.6397 -83.9239 89° East 313 360 14,100  Level Atlanta Center
06:35PM 33.8261 -83.8028 64° Northeast  Level Estimated
06:35PM 33.6481 -83.8267 84° East 323 372 15,800  Level Atlanta Center
06:36PM 33.8342 -83.6687 86° East  Level FlightAware Approximate
06:36PM 33.6917 -83.7117 65° Northeast 350 403 16,800  Level Atlanta Center
06:37PM 33.7411 -83.5817 65° Northeast 402 463 18,000 1,500 Climbing Atlanta Center
06:38PM 33.7908 -83.4514 65° Northeast 424 488 19,800 1,740 Climbing Atlanta Center
06:39PM 33.8400 -83.3086 67° East 445 512 21,500 1,800 Climbing Atlanta Center
06:40PM 33.8933 -83.1678 65° Northeast 453 521 23,400 1,680 Climbing Atlanta Center
06:41PM 33.9361 -83.0197 71° East 459 528 24,900 1,500 Climbing Atlanta Center
06:42PM 33.9639 -82.8667 78° East 459 528 26,500 1,740 Climbing Atlanta Center
06:43PM 33.9914 -82.6958 79° East 468 539 28,400 1,620 Climbing Atlanta Center
06:44PM 34.0147 -82.5450 79° East 468 539 29,800 1,140 Climbing Atlanta Center
06:45PM 34.0442 -82.3967 76° East 463 533 30,700 720 Climbing Atlanta Center
06:46PM 34.0711 -82.2408 78° East 463 533 31,300 600 Climbing Atlanta Center
06:47PM 34.0958 -82.0822 79° East 475 547 31,900 480 Climbing Atlanta Center
06:50PM 34.1567 -81.7381 78° East 496 571 33,000 300 Climbing Jacksonville Center
06:51PM 34.1822 -81.5797 79° East 485 558 33,000  Level Jacksonville Center
06:52PM 34.2117 -81.4186 77° East 485 558 33,000  Level Jacksonville Center
06:53PM 34.2389 -81.2597 78° East 485 558 33,000  Level Jacksonville Center
06:54PM 34.2619 -81.1011 80° East 485 558 33,000  Level Jacksonville Center
06:55PM 34.2889 -80.9472 78° East 480 552 33,000  Level Jacksonville Center
06:56PM 34.3575 -80.8025 60° Northeast 477 549 33,000  Level Jacksonville Center
06:57PM 34.4344 -80.6722 54° Northeast 472 543 33,000  Level Jacksonville Center
06:58PM 34.5072 -80.5417 56° Northeast 478 550 33,000  Level Jacksonville Center
06:59PM 34.6136 -80.3411 57° Northeast 469 540 33,000  Level Washington Center
07:00PM 34.6856 -80.2114 56° Northeast 469 540 33,000  Level Washington Center
07:01PM 34.7531 -80.0789 58° Northeast 464 534 33,000  Level Washington Center
07:02PM 34.8247 -79.9486 56° Northeast 464 534 33,000  Level Washington Center
07:03PM 34.8942 -79.8156 58° Northeast 464 534 33,000  Level Washington Center
07:04PM 34.9656 -79.6850 56° Northeast 464 534 33,000  Level Washington Center
07:05PM 35.0325 -79.5542 58° Northeast 464 534 33,000  Level Washington Center
07:06PM 35.1036 -79.4206 57° Northeast 464 534 33,000  Level Washington Center
07:07PM 35.1725 -79.2892 57° Northeast 464 534 33,000  Level Washington Center
07:08PM 35.2392 -79.1572 58° Northeast 464 534 33,000  Level Washington Center
07:09PM 35.3075 -79.0281 57° Northeast 464 534 33,000  Level Washington Center
07:10PM 35.3761 -78.8933 58° Northeast 464 534 33,000  Level Washington Center
07:11PM 35.4442 -78.7636 57° Northeast 464 534 33,000  Level Washington Center
07:12PM 35.5192 -78.6108 59° Northeast 471 542 33,000  Level Washington Center
07:13PM 35.5892 -78.4783 57° Northeast 461 531 33,000  Level Washington Center
07:14PM 35.6592 -78.3453 57° Northeast 461 531 33,000  Level Washington Center
07:15PM 35.7225 -78.2144 59° Northeast 461 531 33,000  Level Washington Center
07:16PM 35.7881 -78.0833 58° Northeast 455 524 33,000  Level Washington Center
07:17PM 35.8531 -77.9547 58° Northeast 444 511 33,000  Level Washington Center
07:18PM 35.9183 -77.8233 58° Northeast 444 511 33,000  Level Washington Center
07:19PM 35.9833 -77.6917 59° Northeast 444 511 33,000  Level Washington Center
07:20PM 36.0583 -77.5678 53° Northeast 444 511 33,000  Level Washington Center
07:21PM 36.1356 -77.4489 51° Northeast 444 511 33,000  Level Washington Center
07:22PM 36.1997 -77.3422 53° Northeast 439 505 33,000  Level Washington Center
07:23PM 36.2764 -77.2153 53° Northeast 439 505 33,000  Level Washington Center
07:24PM 36.3511 -77.0928 53° Northeast 439 505 33,000  Level Washington Center
07:25PM 36.4278 -76.9706 52° Northeast 444 511 33,000  Level Washington Center
07:26PM 36.5106 -76.8325 53° Northeast 449 517 33,000  Level Washington Center
07:27PM 36.5806 -76.7197 52° Northeast 454 522 33,000  Level Washington Center
07:28PM 36.6547 -76.5992 52° Northeast 454 522 33,000  Level Washington Center
07:29PM 36.7369 -76.4603 54° Northeast 454 522 33,000  Level Washington Center
07:30PM 36.8108 -76.3364 53° Northeast 454 522 33,000  Level Washington Center
07:31PM 36.8889 -76.2125 52° Northeast 454 522 33,000  Level Washington Center
07:32PM 36.9747 -76.1561 28° Northeast 432 497 33,000 -60 Level Washington Center
07:33PM 37.1022 -76.0944 21° North 432 497 32,900  Descending Washington Center
07:34PM 37.2150 -76.0353 23° Northeast 426 490 33,000  Climbing Washington Center
07:35PM 37.3258 -75.9758 23° Northeast 426 490 33,000  Level Washington Center
07:36PM 37.4386 -75.9136 24° Northeast 431 496 33,000  Level Washington Center
07:37PM 37.5514 -75.8486 25° Northeast 438 504 33,000  Level Washington Center
07:38PM 37.6558 -75.7703 31° Northeast 438 504 33,000  Level Washington Center
07:39PM 37.7706 -75.6811 32° Northeast 438 504 33,000  Level Washington Center
07:40PM 37.8769 -75.6075 29° Northeast 438 504 33,000  Level Washington Center
07:41PM 37.9811 -75.5286 31° Northeast 433 498 33,000  Level Washington Center
07:42PM 38.0856 -75.4492 31° Northeast 428 493 33,000  Level Washington Center
07:43PM 38.1958 -75.3883 23° Northeast 423 487 33,000  Level Washington Center
07:44PM 38.3042 -75.3192 27° Northeast 423 487 33,000  Level Washington Center
07:45PM 38.4103 -75.2392 31° Northeast 433 498 33,000  Level Washington Center
07:46PM 38.5206 -75.1725 25° Northeast 433 498 33,000 -660 Level Washington Center
07:47PM 38.6308 -75.1000 27° Northeast 433 498 31,700 -1,500 Descending Washington Center
07:48PM 38.7408 -75.0300 26° Northeast 433 498 30,100 -1,500 Descending Washington Center
07:49PM 38.8553 -74.9597 26° Northeast 433 498 28,700 -1,560 Descending Washington Center
07:50PM 38.9675 -74.8842 28° Northeast 438 504 27,000 -1,500 Descending Washington Center
07:51PM 39.0775 -74.8161 26° Northeast 438 504 25,800 -1,440 Descending Washington Center
07:52PM 39.1747 -74.7214 37° Northeast 438 504 24,200 -1,680 Descending Washington Center
07:54PM 39.3381 -74.5450 40° Northeast 419 482 21,000 -1,560 Descending New York Center
07:55PM 39.4244 -74.4500 40° Northeast 407 468 19,600 -1,440 Descending New York Center
07:56PM 39.5131 -74.3525 40° Northeast 402 463 18,200 -840 Descending New York Center
07:57PM 39.5972 -74.2597 40° Northeast 397 457 18,000 -600 Descending New York Center
07:58PM 39.6897 -74.1564 41° Northeast 397 457 17,100 -1,620 Descending New York Center
07:59PM 39.7694 -74.0686 40° Northeast 385 443 14,800 -2,340 Descending New York Center
08:00PM 39.8403 -73.9933 39° Northeast 373 429 12,500 -1,920 Descending New York Center
08:01PM 39.9275 -73.9272 30° Northeast 363 418 11,000 -780 Descending New York Center
08:02PM 40.0147 -73.8661 28° Northeast 328 377 11,000 -240 Level New York Center
08:03PM 40.0869 -73.8122 30° Northeast 303 349 10,600 -960 Descending New York Center
08:04PM 40.1500 -73.7500 37° Northeast 295 339 9,300 -1,740 Descending New York TRACON
08:05PM 40.2167 -73.7000 30° Northeast 291 335 7,800 -1,500 Descending New York TRACON
08:06PM 40.2833 -73.6500 30° Northeast 277 319 6,300 -1,440 Descending New York TRACON
08:07PM 40.3500 -73.6000 30° Northeast 259 298 5,000 -1,320 Descending New York TRACON
08:07PM 40.3656 -73.5878 31° Northeast 271 312 4,500 -1,140 Descending New York Center
08:08PM 40.4000 -73.5500 40° Northeast 257 296 4,000 -360 Descending New York TRACON
08:09PM 40.4667 -73.5167 21° North 253 291 4,000  Level New York TRACON
08:10PM 40.5167 -73.4667 37° Northeast 256 295 4,000  Level New York TRACON
08:11PM 40.6000 -73.4500 North 252 290 4,000 -420 Level New York TRACON
08:12PM 40.6500 -73.4667 346° North 247 284 3,200 -840 Descending New York TRACON
08:13PM 40.7167 -73.5167 330° Northwest 250 288 2,500 -600 Descending New York TRACON
08:14PM 40.7833 -73.5667 330° Northwest 233 268 2,000 -300 Descending New York TRACON
08:15PM 40.7833 -73.6333 270° West 202 232 2,000  Level New York TRACON
08:16PM 40.7500 -73.6667 217° Southwest 181 208 2,000  Level New York TRACON